createdAt,value
2023-03-18T00:00:10.050Z,12.18
2023-03-18T00:02:38.025Z,11.82
2023-03-18T00:05:05.977Z,13.32
2023-03-18T00:07:33.540Z,12.95
2023-03-18T00:10:00.141Z,13.25
2023-03-18T00:12:27.224Z,13.88
2023-03-18T00:14:53.842Z,12.93
2023-03-18T00:17:20.775Z,12.25
2023-03-18T00:19:48.390Z,12.98
2023-03-18T00:22:15.246Z,13.77
2023-03-18T00:24:41.925Z,14.73
2023-03-18T00:27:09.336Z,12.95
2023-03-18T00:29:35.941Z,11.45
2023-03-18T00:32:02.618Z,12.45
2023-03-18T00:34:29.268Z,13.57
2023-03-18T00:36:57.148Z,13.35
2023-03-18T00:39:26.359Z,14.05
2023-03-18T00:41:56.593Z,12.95
2023-03-18T00:44:25.296Z,14.48
2023-03-18T00:46:52.169Z,17.10
2023-03-18T00:49:19.101Z,17.08
2023-03-18T00:51:46.702Z,15.88
2023-03-18T00:54:17.887Z,15.38
2023-03-18T00:56:44.965Z,16.83
2023-03-18T00:59:11.912Z,17.08
2023-03-18T01:01:39.297Z,18.20
2023-03-18T01:04:07.315Z,20.45
2023-03-18T01:06:36.350Z,17.38
2023-03-18T01:09:05.239Z,20.73
2023-03-18T01:11:33.481Z,17.05
2023-03-18T01:14:00.594Z,18.38
2023-03-18T01:16:28.194Z,19.88
2023-03-18T01:18:55.038Z,22.02
2023-03-18T01:21:22.480Z,21.88
2023-03-18T01:23:49.207Z,22.00
2023-03-18T01:26:16.807Z,19.88
2023-03-18T01:28:43.542Z,19.33
2023-03-18T01:31:10.448Z,21.95
2023-03-18T01:33:37.211Z,22.17
2023-03-18T01:36:05.024Z,21.80
2023-03-18T01:38:32.531Z,20.00
2023-03-18T01:41:00.778Z,21.77
2023-03-18T01:43:34.286Z,22.27
2023-03-18T01:46:02.945Z,21.50
2023-03-18T01:48:33.525Z,24.30
2023-03-18T01:51:05.271Z,21.65
2023-03-18T01:53:36.441Z,21.60
2023-03-18T01:56:04.244Z,23.08
2023-03-18T01:58:38.568Z,21.42
2023-03-18T02:01:17.969Z,23.52
2023-03-18T02:06:12.377Z,22.95
2023-03-18T02:08:40.236Z,23.05
2023-03-18T02:11:09.137Z,23.45
2023-03-18T02:13:42.418Z,23.13
2023-03-18T02:16:32.573Z,22.55
2023-03-18T02:19:07.463Z,20.08
2023-03-18T02:21:59.032Z,20.25
2023-03-18T02:24:59.528Z,18.67
2023-03-18T02:27:30.009Z,18.15
2023-03-18T02:30:05.231Z,19.60
2023-03-18T02:32:33.702Z,18.30
2023-03-18T02:35:05.239Z,16.85
2023-03-18T02:37:31.882Z,18.30
2023-03-18T02:40:33.799Z,18.52
2023-03-18T02:43:31.708Z,17.77
2023-03-18T02:46:19.698Z,17.13
2023-03-18T02:48:48.878Z,19.25
2023-03-18T02:51:16.645Z,19.38
2023-03-18T02:53:44.648Z,19.40
2023-03-18T02:56:11.694Z,20.63
2023-03-18T02:58:39.044Z,17.85
2023-03-18T03:01:08.383Z,17.17
2023-03-18T03:03:36.074Z,15.05
2023-03-18T03:06:03.311Z,17.90
2023-03-18T03:08:30.421Z,17.50
2023-03-18T03:10:57.433Z,18.88
2023-03-18T03:13:24.827Z,17.98
2023-03-18T03:15:51.761Z,18.73
2023-03-18T03:18:18.527Z,18.65
2023-03-18T03:20:45.685Z,17.42
2023-03-18T03:23:14.625Z,19.02
2023-03-18T03:25:42.272Z,18.90
2023-03-18T03:28:09.094Z,20.30
2023-03-18T03:30:36.661Z,20.25
2023-03-18T03:33:04.057Z,20.02
2023-03-18T03:35:31.646Z,20.50
2023-03-18T03:37:58.538Z,19.08
2023-03-18T03:40:25.971Z,19.73
2023-03-18T03:42:52.644Z,18.85
2023-03-18T03:45:20.123Z,20.75
2023-03-18T03:47:47.699Z,20.52
2023-03-18T03:50:15.632Z,20.55
2023-03-18T03:52:43.414Z,20.55
2023-03-18T03:55:14.062Z,21.08
2023-03-18T03:57:40.905Z,20.45
2023-03-18T04:00:13.503Z,18.48
2023-03-18T04:02:43.374Z,19.38
2023-03-18T04:05:11.581Z,18.83
2023-03-18T04:07:39.220Z,20.00
2023-03-18T04:10:09.417Z,19.38
2023-03-18T04:12:36.558Z,19.52
2023-03-18T04:15:04.846Z,19.45
2023-03-18T04:17:31.493Z,18.20
2023-03-18T04:19:58.657Z,19.48
2023-03-18T04:22:25.345Z,19.30
2023-03-18T04:24:52.297Z,19.35
2023-03-18T04:27:18.956Z,19.92
2023-03-18T04:29:46.615Z,17.77
2023-03-18T04:32:13.397Z,18.98
2023-03-18T04:34:40.328Z,18.70
2023-03-18T04:37:08.559Z,19.05
2023-03-18T04:39:35.249Z,18.88
2023-03-18T04:42:01.970Z,19.23
2023-03-18T04:44:28.993Z,18.85
2023-03-18T04:46:55.745Z,20.95
2023-03-18T04:49:22.461Z,18.83
2023-03-18T04:51:49.115Z,16.98
2023-03-18T04:54:15.797Z,18.90
2023-03-18T04:56:43.652Z,18.48
2023-03-18T04:59:10.351Z,19.35
2023-03-18T05:01:37.004Z,20.48
2023-03-18T05:04:03.947Z,20.13
2023-03-18T05:06:31.708Z,21.00
2023-03-18T05:08:58.897Z,19.33
2023-03-18T05:11:27.119Z,19.65
2023-03-18T05:13:53.852Z,19.05
2023-03-18T05:16:20.536Z,20.88
2023-03-18T05:18:47.195Z,19.77
2023-03-18T05:21:13.965Z,17.85
2023-03-18T05:23:41.005Z,19.42
2023-03-18T05:26:07.680Z,19.77
2023-03-18T05:28:34.374Z,20.08
2023-03-18T05:31:01.415Z,20.60
2023-03-18T05:33:28.386Z,18.63
2023-03-18T05:35:55.223Z,21.35
2023-03-18T05:38:22.073Z,22.10
2023-03-18T05:40:49.088Z,22.35
2023-03-18T05:43:16.027Z,20.63
2023-03-18T05:45:44.104Z,20.25
2023-03-18T05:48:11.609Z,17.38
2023-03-18T05:50:41.965Z,18.00
2023-03-18T05:53:09.647Z,17.98
2023-03-18T05:55:36.421Z,18.35
2023-03-18T05:58:03.908Z,17.70
2023-03-18T06:00:31.418Z,15.20
2023-03-18T06:02:59.701Z,15.93
2023-03-18T06:05:27.284Z,15.07
2023-03-18T06:07:54.798Z,15.35
2023-03-18T06:10:23.050Z,16.52
2023-03-18T06:12:50.844Z,17.13
2023-03-18T06:15:18.873Z,15.65
2023-03-18T06:17:45.714Z,16.10
2023-03-18T06:20:14.554Z,19.60
2023-03-18T06:22:42.089Z,20.50
2023-03-18T06:25:09.994Z,19.27
2023-03-18T06:27:36.758Z,17.55
2023-03-18T06:30:04.690Z,21.98
2023-03-18T06:32:33.814Z,20.08
2023-03-18T06:35:01.084Z,20.48
2023-03-18T06:37:28.217Z,21.52
2023-03-18T06:39:54.893Z,20.10
2023-03-18T06:42:21.606Z,18.92
2023-03-18T06:44:51.181Z,21.55
2023-03-18T06:47:19.445Z,21.33
2023-03-18T06:49:46.945Z,23.20
2023-03-18T06:52:14.151Z,22.50
2023-03-18T06:54:41.162Z,23.23
2023-03-18T06:57:08.526Z,23.95
2023-03-18T06:59:35.714Z,24.65
2023-03-18T07:02:02.963Z,22.05
2023-03-18T07:04:29.606Z,26.30
2023-03-18T07:06:56.329Z,24.95
2023-03-18T07:09:24.515Z,27.60
2023-03-18T07:11:51.198Z,25.30
2023-03-18T07:14:18.394Z,26.27
2023-03-18T07:16:45.833Z,20.08
2023-03-18T07:19:12.732Z,24.27
2023-03-18T07:21:40.644Z,21.83
2023-03-18T07:24:07.475Z,26.80
2023-03-18T07:26:34.530Z,27.55
2023-03-18T07:29:01.708Z,28.25
2023-03-18T07:31:28.428Z,26.80
2023-03-18T07:33:55.140Z,27.02
2023-03-18T07:36:22.266Z,27.85
2023-03-18T07:38:49.435Z,28.08
2023-03-18T07:41:16.129Z,22.27
2023-03-18T07:43:43.498Z,26.13
2023-03-18T07:46:10.212Z,25.30
2023-03-18T07:48:36.916Z,25.17
2023-03-18T07:51:04.232Z,25.83
2023-03-18T07:53:30.891Z,22.52
2023-03-18T07:55:57.542Z,27.63
2023-03-18T07:58:25.661Z,24.88
2023-03-18T08:00:53.348Z,21.42
2023-03-18T08:03:20.591Z,22.58
2023-03-18T08:05:47.274Z,26.10
2023-03-18T08:08:13.920Z,25.17
2023-03-18T08:10:40.490Z,25.15
2023-03-18T08:13:07.106Z,26.08
2023-03-18T08:15:34.299Z,28.17
2023-03-18T08:18:01.638Z,21.20
2023-03-18T08:20:28.722Z,26.83
2023-03-18T08:22:56.020Z,26.52
2023-03-18T08:25:23.706Z,19.63
2023-03-18T08:27:52.312Z,28.17
2023-03-18T08:30:19.445Z,24.60
2023-03-18T08:32:46.450Z,21.02
2023-03-18T08:35:13.543Z,19.40
2023-03-18T08:37:40.402Z,17.17
2023-03-18T08:40:09.683Z,24.88
2023-03-18T08:42:36.333Z,26.75
2023-03-18T08:45:04.646Z,16.63
2023-03-18T08:47:31.554Z,24.60
2023-03-18T08:49:58.635Z,27.33
2023-03-18T08:52:25.659Z,17.42
2023-03-18T08:54:52.734Z,21.30
2023-03-18T08:57:19.446Z,23.63
2023-03-18T08:59:46.614Z,23.33
2023-03-18T09:02:18.368Z,16.08
2023-03-18T09:04:45.515Z,26.10
2023-03-18T09:07:13.156Z,27.23
2023-03-18T09:09:44.079Z,25.35
2023-03-18T09:12:12.442Z,23.70
2023-03-18T09:14:40.386Z,18.45
2023-03-18T09:17:07.408Z,17.80
2023-03-18T09:19:35.274Z,21.17
2023-03-18T09:22:02.018Z,18.98
2023-03-18T09:24:28.864Z,18.95
2023-03-18T09:26:55.650Z,20.00
2023-03-18T09:29:22.307Z,12.93
2023-03-18T09:31:49.205Z,17.38
2023-03-18T09:34:15.913Z,17.77
2023-03-18T09:36:49.199Z,17.20
2023-03-18T09:39:15.918Z,19.40
2023-03-18T09:42:05.437Z,15.75
2023-03-18T09:44:34.632Z,19.52
2023-03-18T09:47:26.489Z,15.85
2023-03-18T09:49:59.228Z,14.23
2023-03-18T09:52:35.879Z,13.82
2023-03-18T09:55:30.269Z,15.23
2023-03-18T09:58:03.085Z,14.93
2023-03-18T10:00:36.886Z,16.15
2023-03-18T10:03:10.873Z,16.70
2023-03-18T10:05:50.372Z,14.93
2023-03-18T10:08:42.966Z,12.85
2023-03-18T10:11:32.111Z,14.77
2023-03-18T10:14:26.428Z,13.63
2023-03-18T10:17:16.293Z,13.77
2023-03-18T10:19:54.295Z,14.73
2023-03-18T10:22:40.844Z,12.07
2023-03-18T10:25:27.027Z,12.02
2023-03-18T10:28:25.852Z,10.80
2023-03-18T10:31:01.775Z,12.35
2023-03-18T10:33:37.351Z,12.55
2023-03-18T10:36:18.631Z,10.48
2023-03-18T10:38:52.568Z,10.27
2023-03-18T10:41:38.955Z,10.30
2023-03-18T10:44:36.168Z,13.20
2023-03-18T10:47:19.775Z,10.50
2023-03-18T10:50:23.267Z,10.73
2023-03-18T10:53:23.524Z,11.35
2023-03-18T10:56:04.386Z,11.60
2023-03-18T10:58:31.000Z,10.32
2023-03-18T11:00:57.904Z,10.40
2023-03-18T11:03:31.684Z,9.70
2023-03-18T11:06:02.992Z,10.00
2023-03-18T11:08:29.772Z,9.98
2023-03-18T11:10:57.229Z,9.93
2023-03-18T11:13:23.877Z,9.60
2023-03-18T11:15:56.562Z,9.27
2023-03-18T11:18:26.540Z,9.85
2023-03-18T11:21:01.354Z,9.48
2023-03-18T11:23:49.036Z,10.73
2023-03-18T11:26:30.232Z,6.78
2023-03-18T11:29:00.474Z,8.35
2023-03-18T11:31:27.958Z,7.40
2023-03-18T11:33:59.139Z,7.72
2023-03-18T11:36:27.879Z,8.38
2023-03-18T11:39:01.317Z,8.00
2023-03-18T11:41:30.134Z,7.05
2023-03-18T11:44:00.970Z,7.95
2023-03-18T11:46:42.277Z,8.27
2023-03-18T11:49:16.447Z,8.57
2023-03-18T11:51:53.340Z,8.52
2023-03-18T11:54:44.450Z,8.52
2023-03-18T11:57:21.413Z,9.70
2023-03-18T12:00:09.874Z,8.98
2023-03-18T12:02:42.742Z,9.30
2023-03-18T12:05:41.713Z,9.10
2023-03-18T12:08:13.325Z,10.07
2023-03-18T12:11:06.458Z,9.57
2023-03-18T12:14:05.597Z,9.90
2023-03-18T12:16:44.757Z,7.57
2023-03-18T12:19:20.601Z,8.57
2023-03-18T12:22:05.710Z,9.13
2023-03-18T12:30:20.784Z,9.75
2023-03-18T12:33:17.131Z,9.18
2023-03-18T12:35:49.380Z,8.50
2023-03-18T12:38:53.244Z,8.38
2023-03-18T12:41:44.023Z,8.82
2023-03-18T12:44:48.020Z,6.72
2023-03-18T12:47:25.773Z,8.02
2023-03-18T12:50:02.188Z,6.93
2023-03-18T12:52:38.480Z,4.80
2023-03-18T12:55:27.128Z,5.43
2023-03-18T12:58:00.458Z,4.22
2023-03-18T13:00:34.932Z,4.38
2023-03-18T13:03:23.437Z,4.13
2023-03-18T13:05:58.462Z,4.18
2023-03-18T13:08:43.828Z,3.70
2023-03-18T13:11:48.409Z,3.42
2023-03-18T13:14:41.386Z,3.85
2023-03-18T13:17:17.101Z,3.60
2023-03-18T13:19:45.058Z,3.35
2023-03-18T13:22:33.488Z,4.25
2023-03-18T13:25:48.523Z,4.05
2023-03-18T13:28:40.099Z,3.65
2023-03-18T13:31:27.169Z,3.60
2023-03-18T13:34:12.629Z,3.00
2023-03-18T13:37:14.436Z,3.47
2023-03-18T13:40:23.483Z,2.42
2023-03-18T13:42:51.510Z,2.85
2023-03-18T13:45:32.707Z,2.80
2023-03-18T13:48:02.713Z,2.95
2023-03-18T13:50:43.211Z,2.53
2023-03-18T13:53:29.794Z,3.05
2023-03-18T13:55:56.576Z,2.83
2023-03-18T13:58:35.497Z,2.33
2023-03-18T14:01:16.053Z,2.08
2023-03-18T14:03:42.737Z,2.63
2023-03-18T14:06:10.030Z,2.08
2023-03-18T14:08:39.527Z,2.10
2023-03-18T14:11:22.768Z,2.13
2023-03-18T14:13:54.937Z,1.83
2023-03-18T14:16:28.528Z,1.70
2023-03-18T14:19:01.866Z,2.00
2023-03-18T14:21:31.004Z,2.30
2023-03-18T14:24:13.064Z,1.90
2023-03-18T14:26:41.152Z,1.85
2023-03-18T14:29:07.732Z,1.77
2023-03-18T14:31:40.515Z,1.85
2023-03-18T14:34:14.734Z,2.17
2023-03-18T14:36:49.036Z,1.70
2023-03-18T14:39:37.239Z,2.35
2023-03-18T14:42:13.576Z,2.50
2023-03-18T14:45:10.689Z,2.78
2023-03-18T14:47:43.415Z,1.77
2023-03-18T14:50:28.600Z,1.75
2023-03-18T14:53:12.653Z,2.03
2023-03-18T14:55:40.286Z,2.13
2023-03-18T14:58:11.628Z,1.92
2023-03-18T15:00:39.227Z,1.95
2023-03-18T15:03:09.438Z,2.00
2023-03-18T15:05:39.084Z,1.77
2023-03-18T15:08:19.565Z,1.70
2023-03-18T15:10:49.883Z,2.03
2023-03-18T15:13:22.416Z,1.95
2023-03-18T15:15:54.710Z,2.03
2023-03-18T15:18:34.445Z,2.42
2023-03-18T15:21:23.879Z,1.88
2023-03-18T15:23:54.271Z,2.35
2023-03-18T15:26:29.108Z,2.13
2023-03-18T15:28:58.484Z,1.90
2023-03-18T15:31:25.373Z,2.10
2023-03-18T15:34:05.660Z,1.88
2023-03-18T15:36:41.455Z,2.65
2023-03-18T15:39:21.490Z,1.55
2023-03-18T15:41:53.427Z,2.30
2023-03-18T15:44:37.233Z,2.00
2023-03-18T15:47:13.492Z,1.83
2023-03-18T15:49:51.486Z,1.45
2023-03-18T15:52:18.308Z,2.10
2023-03-18T15:54:48.307Z,1.63
2023-03-18T15:57:31.920Z,1.77
2023-03-18T15:59:58.723Z,1.58
2023-03-18T16:02:26.339Z,1.70
2023-03-18T16:04:53.617Z,1.65
2023-03-18T16:07:28.269Z,2.20
2023-03-18T16:12:31.185Z,1.88
2023-03-18T16:14:57.876Z,2.00
2023-03-18T16:17:24.648Z,1.58
2023-03-18T16:19:55.131Z,1.40
2023-03-18T16:22:22.208Z,2.22
2023-03-18T16:24:49.426Z,1.75
2023-03-18T16:27:43.272Z,1.52
2023-03-18T16:30:23.305Z,1.90
2023-03-18T16:32:50.521Z,1.55
2023-03-18T16:35:20.414Z,1.50
2023-03-18T16:37:48.544Z,1.45
2023-03-18T16:40:21.978Z,1.38
2023-03-18T16:42:49.382Z,1.77
2023-03-18T16:45:18.722Z,1.45
2023-03-18T16:47:47.404Z,1.50
2023-03-18T16:50:19.696Z,1.88
2023-03-18T16:52:47.470Z,1.42
2023-03-18T16:55:16.254Z,1.88
2023-03-18T16:57:47.423Z,2.05
2023-03-18T17:00:26.328Z,2.00
2023-03-18T17:02:53.568Z,1.50
2023-03-18T17:05:21.345Z,1.50
2023-03-18T17:07:49.566Z,2.17
2023-03-18T17:10:19.579Z,2.13
2023-03-18T17:12:54.196Z,1.45
2023-03-18T17:15:26.984Z,2.10
2023-03-18T17:17:57.975Z,1.45
2023-03-18T17:20:27.019Z,1.42
2023-03-18T17:22:54.441Z,1.67
2023-03-18T17:25:21.878Z,1.63
2023-03-18T17:27:57.385Z,1.48
2023-03-18T17:30:35.372Z,1.80
2023-03-18T17:33:04.314Z,1.40
2023-03-18T17:35:31.523Z,1.30
2023-03-18T17:37:59.162Z,1.67
2023-03-18T17:40:29.405Z,1.52
2023-03-18T17:42:56.438Z,1.80
2023-03-18T17:45:34.677Z,1.60
2023-03-18T17:48:10.345Z,2.22
2023-03-18T17:50:37.331Z,1.70
2023-03-18T17:53:04.124Z,1.30
2023-03-18T17:55:31.205Z,1.75
2023-03-18T17:57:58.113Z,1.38
2023-03-18T18:00:26.352Z,1.30
2023-03-18T18:02:57.972Z,1.70
2023-03-18T18:05:24.732Z,1.67
2023-03-18T18:07:51.584Z,1.40
2023-03-18T18:10:20.470Z,1.85
2023-03-18T18:12:49.818Z,1.90
2023-03-18T18:15:20.093Z,2.03
2023-03-18T18:17:48.458Z,2.55
2023-03-18T18:20:16.783Z,2.10
2023-03-18T18:22:48.281Z,2.58
2023-03-18T18:25:20.504Z,2.22
2023-03-18T18:27:48.246Z,2.17
2023-03-18T18:30:17.624Z,2.22
2023-03-18T18:32:45.833Z,2.33
2023-03-18T18:35:22.035Z,2.10
2023-03-18T18:37:53.037Z,1.90
2023-03-18T18:40:19.879Z,2.47
2023-03-18T18:42:46.530Z,2.35
2023-03-18T18:45:18.071Z,2.22
2023-03-18T18:47:45.072Z,2.35
2023-03-18T18:50:21.471Z,2.00
2023-03-18T18:52:48.230Z,1.92
2023-03-18T18:55:15.319Z,2.03
2023-03-18T18:57:42.890Z,2.50
2023-03-18T19:00:18.065Z,1.90
2023-03-18T19:02:46.725Z,2.63
2023-03-18T19:05:14.458Z,2.10
2023-03-18T19:07:45.349Z,2.00
2023-03-18T19:10:17.301Z,2.15
2023-03-18T19:12:44.640Z,3.13
2023-03-18T19:15:14.127Z,4.32
2023-03-18T19:17:43.321Z,3.80
2023-03-18T19:20:29.388Z,2.80
2023-03-18T19:22:57.392Z,2.67
2023-03-18T19:25:27.474Z,2.03
2023-03-18T19:27:54.796Z,2.17
2023-03-18T19:30:24.927Z,2.50
2023-03-18T19:32:52.216Z,3.33
2023-03-18T19:35:19.084Z,2.63
2023-03-18T19:37:47.792Z,2.53
2023-03-18T19:40:30.215Z,4.00
2023-03-18T19:42:57.197Z,2.60
2023-03-18T19:45:23.916Z,2.10
2023-03-18T19:47:50.917Z,2.70
2023-03-18T19:50:21.032Z,2.85
2023-03-18T19:52:48.068Z,2.30
2023-03-18T19:55:20.734Z,2.08
2023-03-18T19:57:48.631Z,3.00
2023-03-18T20:00:20.488Z,2.05
2023-03-18T20:02:49.657Z,2.30
2023-03-18T20:05:19.995Z,2.30
2023-03-18T20:07:46.997Z,2.15
2023-03-18T20:10:14.434Z,1.67
2023-03-18T20:12:46.771Z,1.80
2023-03-18T20:15:17.188Z,2.00
2023-03-18T20:17:45.883Z,2.20
2023-03-18T20:20:19.088Z,1.58
2023-03-18T20:23:07.614Z,1.15
2023-03-18T20:25:37.333Z,1.67
2023-03-18T20:28:05.940Z,1.60
2023-03-18T20:30:35.682Z,1.65
2023-03-18T20:33:04.317Z,1.13
2023-03-18T20:35:34.031Z,1.20
2023-03-18T20:38:05.966Z,1.55
2023-03-18T20:40:34.029Z,2.00
2023-03-18T20:43:01.689Z,1.30
2023-03-18T20:45:28.553Z,2.47
2023-03-18T20:47:56.539Z,1.70
2023-03-18T20:50:31.171Z,1.60
2023-03-18T20:55:28.670Z,1.50
2023-03-18T20:57:55.330Z,1.70
2023-03-18T21:00:25.347Z,1.40
2023-03-18T21:02:53.989Z,1.98
2023-03-18T21:05:21.838Z,1.60
2023-03-18T21:07:49.038Z,1.65
2023-03-18T21:10:18.789Z,1.83
2023-03-18T21:12:46.324Z,2.03
2023-03-18T21:15:24.933Z,3.20
2023-03-18T21:17:52.074Z,1.80
2023-03-18T21:20:22.760Z,1.70
2023-03-18T21:22:51.308Z,1.90
2023-03-18T21:25:19.101Z,2.00
2023-03-18T21:27:46.156Z,1.90
2023-03-18T21:30:13.858Z,1.92
2023-03-18T21:32:43.204Z,2.28
2023-03-18T21:35:29.665Z,1.90
2023-03-18T21:37:56.312Z,1.95
2023-03-18T21:40:24.515Z,1.95
2023-03-18T21:42:51.945Z,2.08
2023-03-18T21:45:21.364Z,2.20
2023-03-18T21:47:48.090Z,2.13
2023-03-18T21:50:23.984Z,2.60
2023-03-18T21:52:51.961Z,1.90
2023-03-18T21:55:19.110Z,2.10
2023-03-18T21:57:48.748Z,2.05
2023-03-18T22:00:19.916Z,1.73
2023-03-18T22:02:47.565Z,2.10
2023-03-18T22:05:17.630Z,2.45
2023-03-18T22:07:44.439Z,2.03
2023-03-18T22:10:15.978Z,2.55
2023-03-18T22:12:42.650Z,2.28
2023-03-18T22:15:34.068Z,2.47
2023-03-18T22:18:01.040Z,2.67
2023-03-18T22:20:28.082Z,2.70
2023-03-18T22:22:54.849Z,2.45
2023-03-18T22:25:30.972Z,2.78
2023-03-18T22:27:58.725Z,2.53
2023-03-18T22:30:28.012Z,2.63
2023-03-18T22:32:56.108Z,2.20
2023-03-18T22:35:25.518Z,3.00
2023-03-18T22:37:52.941Z,2.40
2023-03-18T22:40:28.332Z,2.20
2023-03-18T22:42:57.000Z,2.95
2023-03-18T22:45:26.500Z,2.70
2023-03-18T22:47:55.998Z,2.88
2023-03-18T22:50:25.208Z,3.08
2023-03-18T22:52:59.024Z,2.85
2023-03-18T22:55:28.338Z,3.10
2023-03-18T22:57:55.044Z,3.20
2023-03-18T23:00:38.645Z,3.85
2023-03-18T23:03:14.880Z,3.13
2023-03-18T23:05:41.547Z,3.28
2023-03-18T23:08:08.155Z,2.78
2023-03-18T23:10:34.840Z,3.72
2023-03-18T23:13:01.479Z,3.35
2023-03-18T23:15:28.202Z,3.17
2023-03-18T23:17:54.828Z,3.47
2023-03-18T23:20:21.504Z,3.25
2023-03-18T23:22:48.171Z,3.17
2023-03-18T23:25:17.774Z,3.60
2023-03-18T23:27:44.948Z,3.78
2023-03-18T23:30:13.202Z,2.78
2023-03-18T23:32:41.040Z,4.03
2023-03-18T23:35:08.937Z,4.35
2023-03-18T23:37:36.340Z,3.40
2023-03-18T23:40:03.818Z,4.30
2023-03-18T23:42:30.446Z,4.47
2023-03-18T23:44:57.186Z,3.47
2023-03-18T23:47:24.006Z,4.63
2023-03-18T23:49:50.797Z,3.58
2023-03-18T23:52:17.613Z,4.00
2023-03-18T23:54:44.379Z,3.55
2023-03-18T23:57:11.716Z,3.67
2023-03-18T23:59:38.830Z,4.85
